Time;durP1;ratioP1;P1;durP2;ratioP2;P2;SDS_P1;SDS_P2;PMS_P1;PMS_P2;Temp;Humidity;BMP_temperature;BMP_pressure;BME280_temperature;BME280_humidity;BME280_pressure;Samples;Min_cycle;Max_cycle;Signal;HPM_P1;HPM_P2
2023/01/30 00:01:45;;;;;;;26.48;20.05;;;;;;;4.56;100.00;101716.47;4717635;30;20479;-64
2023/01/30 00:04:13;;;;;;;19.73;14.75;;;;;;;4.54;100.00;101696.09;4704256;30;20564;-64
2023/01/30 00:06:44;;;;;;;27.67;20.23;;;;;;;4.55;100.00;101698.63;4720022;30;20057;-65
2023/01/30 00:09:14;;;;;;;23.10;16.65;;;;;;;4.55;100.00;101708.59;4719769;30;20570;-64
2023/01/30 00:11:42;;;;;;;25.02;18.55;;;;;;;4.55;100.00;101708.59;4719269;30;20402;-65
2023/01/30 00:14:10;;;;;;;26.33;19.02;;;;;;;4.53;100.00;101694.47;4719855;30;20422;-65
2023/01/30 00:16:37;;;;;;;28.85;21.35;;;;;;;4.55;100.00;101670.81;4719541;30;20432;-64
2023/01/30 00:19:05;;;;;;;23.48;18.23;;;;;;;4.62;100.00;101677.03;4719424;30;20457;-67
2023/01/30 00:21:33;;;;;;;26.00;19.38;;;;;;;4.60;100.00;101689.91;4703703;30;20057;-65
2023/01/30 00:24:00;;;;;;;20.08;13.85;;;;;;;4.68;100.00;101682.41;4717721;30;20084;-65
2023/01/30 00:26:28;;;;;;;27.23;20.20;;;;;;;4.63;100.00;101684.91;4719836;30;20128;-64
2023/01/30 00:28:56;;;;;;;25.95;18.98;;;;;;;4.66;100.00;101684.47;4703899;30;20057;-64
2023/01/30 00:31:24;;;;;;;25.25;19.58;;;;;;;4.68;100.00;101681.59;4703328;30;20128;-64
2023/01/30 00:33:52;;;;;;;28.20;20.67;;;;;;;4.65;100.00;101677.44;4718836;30;20056;-64
2023/01/30 00:36:23;;;;;;;28.58;19.15;;;;;;;4.68;100.00;101676.19;4718050;30;20049;-64
2023/01/30 00:38:52;;;;;;;26.92;18.60;;;;;;;4.74;100.00;101671.81;4703855;30;20053;-65
2023/01/30 00:41:20;;;;;;;24.05;18.40;;;;;;;4.74;100.00;101674.50;4717220;30;20057;-65
2023/01/30 00:49:21;;;;;;;25.52;18.90;;;;;;;4.73;100.00;101672.88;4702666;30;20471;-65
2023/01/30 00:51:48;;;;;;;24.33;18.33;;;;;;;4.75;100.00;101677.03;4703388;30;20518;-64
2023/01/30 00:54:16;;;;;;;25.52;16.63;;;;;;;4.77;100.00;101679.53;4716209;30;20057;-67
2023/01/30 00:56:44;;;;;;;27.80;19.35;;;;;;;4.78;100.00;101670.38;4718514;30;20466;-63
2023/01/30 00:59:11;;;;;;;28.88;20.13;;;;;;;4.76;100.00;101658.94;4718749;30;20495;-64
2023/01/30 01:01:39;;;;;;;25.85;18.48;;;;;;;4.80;100.00;101657.50;4688605;30;20388;-64
2023/01/30 01:04:09;;;;;;;26.83;18.73;;;;;;;4.77;100.00;101660.63;4718422;30;20414;-63
2023/01/30 01:06:37;;;;;;;26.23;18.30;;;;;;;4.82;100.00;101671.63;4713138;30;20459;-63
2023/01/30 01:09:05;;;;;;;25.92;18.38;;;;;;;4.82;100.00;101655.41;4716081;30;20140;-64
2023/01/30 01:11:33;;;;;;;28.23;18.60;;;;;;;4.83;100.00;101657.06;4717261;30;20110;-63
2023/01/30 01:14:02;;;;;;;23.90;17.13;;;;;;;4.80;100.00;101635.91;4717714;30;20136;-63
2023/01/30 01:16:31;;;;;;;24.90;18.27;;;;;;;4.83;100.00;101635.47;4719011;30;20088;-64
2023/01/30 01:19:00;;;;;;;22.73;17.75;;;;;;;4.80;100.00;101642.13;4706461;30;20060;-63
2023/01/30 01:21:27;;;;;;;22.83;18.02;;;;;;;4.82;100.00;101640.03;4676963;30;20111;-63
2023/01/30 01:23:58;;;;;;;20.52;16.10;;;;;;;4.86;100.00;101635.91;4706494;30;20139;-63
2023/01/30 01:26:26;;;;;;;24.65;17.60;;;;;;;4.90;100.00;101636.28;4675025;30;20589;-65
2023/01/30 01:28:58;;;;;;;23.80;16.63;;;;;;;4.91;100.00;101627.16;4720967;30;20059;-64
2023/01/30 01:31:26;;;;;;;23.30;16.92;;;;;;;5.01;100.00;101616.75;4718965;30;20083;-63
2023/01/30 01:33:55;;;;;;;22.27;17.05;;;;;;;4.97;100.00;101626.31;4702704;30;20056;-65
2023/01/30 01:36:25;;;;;;;26.60;18.85;;;;;;;4.95;100.00;101639.19;4716932;30;20136;-64
2023/01/30 01:39:12;;;;;;;25.13;16.60;;;;;;;4.94;100.00;101631.31;4716767;30;20052;-65
2023/01/30 01:41:41;;;;;;;22.27;16.80;;;;;;;4.93;100.00;101619.69;4700896;30;20499;-65
2023/01/30 01:44:11;;;;;;;24.27;17.48;;;;;;;4.99;100.00;101613.44;4716374;30;20048;-66
2023/01/30 01:46:58;;;;;;;23.13;16.63;;;;;;;5.00;100.00;101601.56;4716502;30;20053;-64
2023/01/30 01:49:29;;;;;;;22.60;15.45;;;;;;;5.05;100.00;101592.84;4717330;30;20065;-65
2023/01/30 01:52:08;;;;;;;22.63;15.82;;;;;;;5.10;100.00;101588.47;4702132;30;20053;-64
2023/01/30 01:54:43;;;;;;;24.60;16.52;;;;;;;5.06;100.00;101589.94;4699557;30;20092;-65
2023/01/30 01:57:26;;;;;;;26.77;16.60;;;;;;;5.16;100.00;101585.97;4717634;30;20052;-64
2023/01/30 02:00:03;;;;;;;23.25;15.48;;;;;;;5.15;100.00;101577.03;4714006;30;20490;-65
2023/01/30 02:03:00;;;;;;;19.48;15.13;;;;;;;5.15;100.00;101573.47;4716996;30;20049;-65
2023/01/30 02:05:34;;;;;;;24.05;15.68;;;;;;;5.18;100.00;101576.59;4702620;30;20053;-64
2023/01/30 02:08:08;;;;;;;19.98;15.25;;;;;;;5.16;100.00;101572.44;4715430;30;20049;-65
2023/01/30 02:10:59;;;;;;;21.00;15.25;;;;;;;5.13;100.00;101571.84;4693710;30;20582;-65
2023/01/30 02:13:27;;;;;;;22.92;16.23;;;;;;;5.11;100.00;101563.09;4724134;30;20112;-63
2023/01/30 02:15:57;;;;;;;25.25;16.10;;;;;;;5.12;100.00;101553.13;4713709;30;20053;-65
2023/01/30 02:18:25;;;;;;;22.58;15.75;;;;;;;5.12;100.00;101558.53;4731718;30;20087;-63
2023/01/30 02:21:02;;;;;;;19.38;12.43;;;;;;;5.16;100.00;101565.16;4670060;30;20087;-65
2023/01/30 02:24:08;;;;;;;24.98;15.82;;;;;;;5.19;100.00;101553.09;4706576;30;20053;-64
2023/01/30 02:26:50;;;;;;;18.42;14.73;;;;;;;5.15;100.00;101559.97;4722116;30;20049;-66
2023/01/30 02:29:43;;;;;;;21.48;15.10;;;;;;;5.18;100.00;101546.06;4716070;30;20079;-65
2023/01/30 02:32:19;;;;;;;24.33;16.15;;;;;;;5.18;100.00;101529.84;4716908;30;20088;-65
2023/01/30 02:34:56;;;;;;;18.77;11.73;;;;;;;5.20;100.00;101528.59;4687357;30;20062;-64
2023/01/30 02:37:54;;;;;;;19.48;15.18;;;;;;;5.27;100.00;101526.69;4673060;30;20064;-65
2023/01/30 02:40:40;;;;;;;22.20;14.83;;;;;;;5.22;100.00;101552.66;4665966;30;1112494;-65
2023/01/30 02:43:31;;;;;;;19.43;13.87;;;;;;;5.20;100.00;101543.97;4701956;30;20061;-65
2023/01/30 02:46:10;;;;;;;19.08;13.15;;;;;;;5.26;100.00;101530.41;4715685;30;20057;-64
2023/01/30 02:48:56;;;;;;;19.23;13.18;;;;;;;5.29;100.00;101526.44;4717707;30;20049;-64
2023/01/30 02:51:29;;;;;;;17.75;12.70;;;;;;;5.34;100.00;101518.56;4701197;30;20060;-64
2023/01/30 02:53:58;;;;;;;20.45;13.57;;;;;;;5.30;100.00;101528.13;4716462;30;20061;-65
2023/01/30 02:56:26;;;;;;;20.10;13.27;;;;;;;5.29;100.00;101516.50;4716964;30;20064;-66
2023/01/30 02:59:00;;;;;;;19.15;12.95;;;;;;;5.26;100.00;101518.78;4712607;30;20054;-63
2023/01/30 03:01:52;;;;;;;15.27;11.13;;;;;;;5.26;100.00;101510.69;4683575;30;20088;-64
2023/01/30 03:04:36;;;;;;;21.38;13.35;;;;;;;5.26;100.00;101505.28;4682526;30;20072;-65
2023/01/30 03:07:14;;;;;;;19.75;13.68;;;;;;;5.27;100.00;101506.94;4687654;30;20491;-63
2023/01/30 03:09:57;;;;;;;20.98;12.82;;;;;;;5.28;100.00;101497.78;4714684;30;20053;-64
2023/01/30 03:12:51;;;;;;;19.45;11.70;;;;;;;5.28;100.00;101493.22;4715648;30;20119;-64
2023/01/30 03:15:25;;;;;;;15.45;10.10;;;;;;;5.34;100.00;101491.53;4701482;30;20084;-65
2023/01/30 03:17:54;;;;;;;15.05;10.68;;;;;;;5.32;100.00;101494.44;4699843;30;20511;-63
2023/01/30 03:20:22;;;;;;;17.35;10.85;;;;;;;5.31;100.00;101498.16;4716295;30;20057;-62
2023/01/30 03:22:51;;;;;;;16.50;10.68;;;;;;;5.31;100.00;101490.06;4701486;30;20069;-64
2023/01/30 03:25:22;;;;;;;14.98;10.43;;;;;;;5.30;100.00;101482.19;4715890;30;20056;-65
2023/01/30 03:27:51;;;;;;;14.98;9.32;;;;;;;5.30;100.00;101484.91;4687000;30;20049;-64
2023/01/30 03:30:19;;;;;;;17.92;10.40;;;;;;;5.29;100.00;101494.88;4715982;30;20057;-64
2023/01/30 03:32:48;;;;;;;14.65;9.27;;;;;;;5.31;100.00;101492.75;4704018;30;20084;-64
2023/01/30 03:35:16;;;;;;;15.98;9.57;;;;;;;5.31;100.00;101478.44;4720334;30;20064;-63
2023/01/30 03:37:46;;;;;;;15.02;8.95;;;;;;;5.36;100.00;101478.59;4703531;30;20053;-61
2023/01/30 03:40:15;;;;;;;16.13;8.98;;;;;;;5.36;100.00;101475.91;4716217;30;20053;-62
2023/01/30 03:42:45;;;;;;;15.10;8.40;;;;;;;5.37;100.00;101469.47;4702766;30;20392;-62
2023/01/30 03:45:14;;;;;;;11.95;7.57;;;;;;;5.37;100.00;101464.06;4706321;30;20146;-62
2023/01/30 03:47:43;;;;;;;14.85;7.30;;;;;;;5.38;100.00;101464.88;4704923;30;20061;-62
2023/01/30 03:50:11;;;;;;;15.63;7.68;;;;;;;5.43;100.00;101473.16;4706555;30;20068;-62
2023/01/30 03:52:39;;;;;;;11.55;6.82;;;;;;;5.42;100.00;101471.53;4707623;30;20053;-63
2023/01/30 03:55:11;;;;;;;13.60;6.25;;;;;;;5.42;100.00;101466.94;4708264;30;20611;-62
2023/01/30 03:57:39;;;;;;;13.02;6.53;;;;;;;5.43;100.00;101468.59;4704668;30;20057;-62
2023/01/30 04:00:08;;;;;;;12.52;6.07;;;;;;;5.45;100.00;101471.91;4719093;30;20053;-64
2023/01/30 04:02:42;;;;;;;9.98;5.68;;;;;;;5.47;100.00;101475.22;4707577;30;20053;-62
2023/01/30 04:05:14;;;;;;;11.95;6.05;;;;;;;5.51;100.00;101472.94;4722760;30;20053;-62
2023/01/30 04:07:50;;;;;;;12.27;6.00;;;;;;;5.51;100.00;101481.84;4707929;30;20557;-63
2023/01/30 04:10:18;;;;;;;11.05;5.20;;;;;;;5.53;100.00;101477.06;4705761;30;20131;-63
2023/01/30 04:12:47;;;;;;;12.88;5.70;;;;;;;5.57;100.00;101476.63;4704200;30;20061;-61
2023/01/30 04:15:15;;;;;;;9.55;4.78;;;;;;;5.57;100.00;101474.75;4718270;30;20119;-62
2023/01/30 04:18:22;;;;;;;10.52;4.95;;;;;;;5.60;100.00;101463.47;4695666;30;20128;-63
2023/01/30 04:20:55;;;;;;;9.70;4.78;;;;;;;5.62;100.00;101468.69;4718029;30;20080;-62
2023/01/30 04:23:30;;;;;;;12.25;5.15;;;;;;;5.63;100.00;101470.31;4718758;30;20084;-62
2023/01/30 04:25:58;;;;;;;9.13;4.85;;;;;;;5.68;100.00;101470.53;4704155;30;20065;-62
2023/01/30 04:28:27;;;;;;;11.07;4.40;;;;;;;5.69;100.00;101472.16;4719976;30;20061;-63
2023/01/30 04:30:54;;;;;;;9.82;4.40;;;;;;;5.67;100.00;101466.13;4703201;30;20061;-61
2023/01/30 04:33:43;;;;;;;9.45;4.82;;;;;;;5.72;100.00;101455.50;4704105;30;20078;-62
2023/01/30 04:36:12;;;;;;;9.98;4.68;;;;;;;5.71;100.00;101470.06;4702110;30;20053;-63
2023/01/30 04:38:41;;;;;;;8.60;4.50;;;;;;;5.70;100.00;101471.97;4688260;30;20053;-62
2023/01/30 04:41:09;;;;;;;11.45;4.80;;;;;;;5.71;100.00;101491.69;4701824;30;20144;-63
2023/01/30 04:43:40;;;;;;;15.00;5.20;;;;;;;5.72;100.00;101475.28;4704708;30;20042;-64
2023/01/30 04:46:46;;;;;;;14.20;5.70;;;;;;;5.74;100.00;101483.97;4680524;30;20058;-63
2023/01/30 04:49:15;;;;;;;13.73;5.55;;;;;;;5.76;100.00;101483.75;4684488;30;20076;-61
2023/01/30 04:51:43;;;;;;;10.52;4.97;;;;;;;5.76;100.00;101478.34;4694873;30;20057;-61
2023/01/30 04:54:11;;;;;;;9.98;5.13;;;;;;;5.77;100.00;101474.59;4668732;30;20137;-63
2023/01/30 04:56:38;;;;;;;13.40;5.68;;;;;;;5.80;100.00;101466.06;4681932;30;20065;-62
2023/01/30 04:59:07;;;;;;;13.05;5.30;;;;;;;5.81;100.00;101465.00;4694977;30;20078;-61
2023/01/30 05:01:40;;;;;;;11.43;5.10;;;;;;;5.83;100.00;101467.50;4668703;30;20054;-62
2023/01/30 05:04:08;;;;;;;14.07;5.57;;;;;;;5.83;100.00;101489.94;4696488;30;20054;-63
2023/01/30 05:06:36;;;;;;;13.30;5.38;;;;;;;5.86;100.00;101478.69;4684163;30;20062;-63
2023/01/30 05:09:04;;;;;;;12.23;4.97;;;;;;;5.87;100.00;101474.09;4683163;30;20085;-63
2023/01/30 05:11:33;;;;;;;14.75;4.93;;;;;;;5.88;100.00;101479.28;4682962;30;20053;-62
2023/01/30 05:14:01;;;;;;;10.93;4.72;;;;;;;5.90;100.00;101485.31;4684421;30;20128;-62
2023/01/30 05:16:29;;;;;;;17.90;5.57;;;;;;;5.91;100.00;101486.94;4697346;30;20129;-62
2023/01/30 05:18:57;;;;;;;15.48;5.60;;;;;;;5.92;100.00;101477.81;4685203;30;20061;-63
2023/01/30 05:21:27;;;;;;;16.02;5.30;;;;;;;5.93;100.00;101465.94;4694563;30;20058;-63
2023/01/30 05:23:55;;;;;;;14.63;5.45;;;;;;;5.97;100.00;101463.66;4684068;30;20042;-63
2023/01/30 05:26:24;;;;;;;17.88;5.82;;;;;;;5.97;100.00;101475.28;4698237;30;20061;-63
2023/01/30 05:28:54;;;;;;;17.67;5.75;;;;;;;5.98;100.00;101471.53;4697864;30;20050;-64
2023/01/30 05:31:22;;;;;;;16.25;5.60;;;;;;;6.00;100.00;101470.50;4696950;30;20117;-65
2023/01/30 05:33:51;;;;;;;18.65;5.22;;;;;;;6.01;100.00;101477.56;4684117;30;20077;-64
2023/01/30 05:36:20;;;;;;;15.45;5.38;;;;;;;6.01;100.00;101464.84;4694913;30;20431;-64
2023/01/30 05:38:48;;;;;;;19.85;5.88;;;;;;;6.03;100.00;101478.16;4686212;30;20468;-64
2023/01/30 05:41:17;;;;;;;16.13;5.22;;;;;;;6.03;100.00;101472.75;4690180;30;20133;-64
2023/01/30 05:43:49;;;;;;;12.55;4.80;;;;;;;6.03;100.00;101472.75;4691051;30;20065;-64
2023/01/30 05:46:17;;;;;;;16.60;5.35;;;;;;;6.02;100.00;101471.09;4694441;30;20058;-64
2023/01/30 05:48:45;;;;;;;13.30;4.95;;;;;;;6.01;100.00;101469.44;4715640;30;20124;-65
2023/01/30 05:51:22;;;;;;;17.85;4.75;;;;;;;6.00;100.00;101476.72;4702566;30;20113;-62
2023/01/30 05:53:49;;;;;;;;;;;;;;;6.00;100.00;101473.19;4698532;30;20057;-65
2023/01/30 05:56:18;;;;;;;15.18;5.32;;;;;;;6.00;100.00;101484.03;4685909;30;20381;-64
2023/01/30 05:58:56;;;;;;;17.20;5.10;;;;;;;6.01;100.00;101488.38;4714754;30;20054;-63
2023/01/30 06:01:24;;;;;;;19.98;4.93;;;;;;;6.02;100.00;101485.47;4693914;30;20531;-63
2023/01/30 06:03:52;;;;;;;19.35;4.47;;;;;;;6.06;100.00;101493.94;4685578;30;20045;-62
2023/01/30 06:06:20;;;;;;;20.73;5.10;;;;;;;6.06;100.00;101491.22;4701848;30;20074;-63
2023/01/30 06:08:53;;;;;;;17.27;5.28;;;;;;;6.07;100.00;101501.03;4691461;30;20062;-63
2023/01/30 06:11:24;;;;;;;16.90;4.30;;;;;;;6.08;100.00;101498.06;4688041;30;20062;-64
2023/01/30 06:13:51;;;;;;;19.33;4.85;;;;;;;6.10;100.00;101489.75;4690296;30;20129;-64
2023/01/30 06:16:19;;;;;;;14.68;4.65;;;;;;;6.09;100.00;101509.75;4690792;30;20137;-64
2023/01/30 06:18:47;;;;;;;17.15;5.18;;;;;;;6.09;100.00;101505.16;4699666;30;20467;-62
2023/01/30 06:21:15;;;;;;;15.40;4.60;;;;;;;6.10;100.00;101514.09;4685672;30;20093;-64
2023/01/30 06:23:43;;;;;;;18.30;4.55;;;;;;;6.08;100.00;101513.50;4694067;30;20059;-63
2023/01/30 06:26:12;;;;;;;16.23;4.47;;;;;;;6.08;100.00;101518.91;4668431;30;20167;-64
2023/01/30 06:28:41;;;;;;;13.27;4.30;;;;;;;6.07;100.00;101514.56;4680995;30;20066;-63
2023/01/30 06:31:09;;;;;;;14.60;4.68;;;;;;;6.06;100.00;101531.81;4677752;30;20462;-64
2023/01/30 06:33:38;;;;;;;16.33;4.53;;;;;;;6.05;100.00;101532.88;4686675;30;20069;-64
2023/01/30 06:36:10;;;;;;;18.58;5.20;;;;;;;6.03;100.00;101521.44;4691594;30;20069;-64
2023/01/30 06:38:38;;;;;;;17.48;4.65;;;;;;;6.02;100.00;101539.56;4698494;30;20124;-64
2023/01/30 06:41:06;;;;;;;18.02;4.82;;;;;;;6.00;100.00;101541.66;4705984;30;20065;-65
2023/01/30 06:43:33;;;;;;;16.48;4.18;;;;;;;5.98;100.00;101528.34;4722507;30;20048;-64
2023/01/30 06:46:01;;;;;;;17.85;4.28;;;;;;;5.95;100.00;101526.06;4723771;30;20056;-63
2023/01/30 06:48:29;;;;;;;13.70;4.28;;;;;;;5.93;100.00;101528.13;4725270;30;20061;-63
2023/01/30 06:50:57;;;;;;;14.85;4.60;;;;;;;5.92;100.00;101531.09;4709612;30;20132;-63
2023/01/30 06:53:29;;;;;;;16.63;4.80;;;;;;;5.91;100.00;101527.53;4725135;30;20053;-64
2023/01/30 06:56:01;;;;;;;17.23;4.10;;;;;;;5.90;100.00;101534.00;4724976;30;20061;-63
2023/01/30 06:58:31;;;;;;;19.33;5.00;;;;;;;5.89;100.00;101524.22;4725364;30;20061;-63
2023/01/30 07:00:58;;;;;;;15.82;4.10;;;;;;;5.88;100.00;101533.38;4725427;30;20079;-63
2023/01/30 07:03:29;;;;;;;18.45;5.38;;;;;;;5.87;100.00;101531.72;4711297;30;20143;-64
2023/01/30 07:06:04;;;;;;;15.90;4.00;;;;;;;5.87;100.00;101522.78;4641085;30;10001294;-64
2023/01/30 07:08:32;;;;;;;15.63;4.22;;;;;;;5.85;100.00;101544.66;4722683;30;20260;-64
2023/01/30 07:10:59;;;;;;;17.13;4.63;;;;;;;5.83;100.00;101533.22;4723393;30;20121;-63
2023/01/30 07:13:27;;;;;;;18.17;4.53;;;;;;;5.84;100.00;101534.84;4692834;30;20060;-64
2023/01/30 07:15:55;;;;;;;17.40;4.47;;;;;;;5.82;100.00;101536.97;4719374;30;20077;-65
2023/01/30 07:18:23;;;;;;;15.02;4.32;;;;;;;5.81;100.00;101543.41;4717349;30;20096;-65
2023/01/30 07:20:50;;;;;;;18.35;4.75;;;;;;;5.81;100.00;101551.53;4718232;30;20074;-64
2023/01/30 07:23:18;;;;;;;16.08;4.50;;;;;;;5.79;100.00;101556.31;4700144;30;20081;-64
2023/01/30 07:25:46;;;;;;;15.68;4.00;;;;;;;5.78;100.00;101549.25;4699799;30;20132;-65
2023/01/30 07:28:13;;;;;;;15.10;3.90;;;;;;;5.77;100.00;101547.59;4700469;30;20078;-64
2023/01/30 07:30:41;;;;;;;19.27;4.63;;;;;;;5.76;100.00;101549.47;4713112;30;20058;-63
2023/01/30 07:33:09;;;;;;;14.73;3.92;;;;;;;5.76;100.00;101556.75;4710392;30;20064;-65
2023/01/30 07:35:37;;;;;;;14.02;3.85;;;;;;;5.74;100.00;101567.78;4717201;30;20696;-67
2023/01/30 07:38:05;;;;;;;17.08;4.45;;;;;;;5.75;100.00;101580.28;4715557;30;20069;-68
2023/01/30 07:40:32;;;;;;;19.05;4.90;;;;;;;5.73;100.00;101576.13;4719864;30;20095;-66
2023/01/30 07:43:02;;;;;;;18.17;4.43;;;;;;;5.73;100.00;101571.56;4703967;30;20052;-66
2023/01/30 07:45:41;;;;;;;19.02;4.68;;;;;;;5.71;100.00;101567.41;4705383;30;20099;-67
2023/01/30 07:48:11;;;;;;;16.73;4.18;;;;;;;5.71;100.00;101567.41;4687838;30;20400;-67
2023/01/30 07:50:39;;;;;;;18.17;4.60;;;;;;;5.70;100.00;101560.31;4705790;30;20057;-66
2023/01/30 07:53:09;;;;;;;17.38;4.63;;;;;;;5.69;100.00;101555.97;4719814;30;20071;-66
2023/01/30 07:55:36;;;;;;;19.73;5.03;;;;;;;5.69;100.00;101558.69;4719933;30;20053;-66
2023/01/30 07:58:04;;;;;;;16.17;4.53;;;;;;;5.69;100.00;101574.91;4704257;30;20068;-67
2023/01/30 08:00:33;;;;;;;21.70;4.65;;;;;;;5.68;100.00;101570.56;4704655;30;20053;-62
2023/01/30 08:03:00;;;;;;;13.27;4.20;;;;;;;5.68;100.00;101573.25;4719557;30;20076;-62
2023/01/30 08:05:28;;;;;;;17.73;4.47;;;;;;;5.69;100.00;101577.59;4720522;30;20132;-60
2023/01/30 08:07:56;;;;;;;20.00;5.10;;;;;;;5.68;100.00;101568.66;4717692;30;20403;-63
2023/01/30 08:10:25;;;;;;;19.80;5.28;;;;;;;5.67;100.00;101577.00;4714121;30;20140;-62
2023/01/30 08:12:52;;;;;;;20.40;4.82;;;;;;;5.65;100.00;101579.06;4675703;30;20057;-62
2023/01/30 08:15:20;;;;;;;19.48;4.90;;;;;;;5.64;100.00;101591.78;4720328;30;20395;-63
2023/01/30 08:17:56;;;;;;;17.25;4.85;;;;;;;5.63;100.00;101606.34;4719176;30;20057;-62
2023/01/30 08:20:24;;;;;;;17.90;4.85;;;;;;;5.62;100.00;101598.44;4703236;30;20117;-61
2023/01/30 08:22:52;;;;;;;20.63;4.78;;;;;;;5.63;100.00;101603.63;4703968;30;20419;-62
2023/01/30 08:25:21;;;;;;;20.25;5.28;;;;;;;5.70;100.00;101606.28;4704162;30;20091;-63
2023/01/30 08:27:48;;;;;;;19.25;4.78;;;;;;;5.77;100.00;101607.06;4718614;30;20392;-62
2023/01/30 08:30:17;;;;;;;28.15;5.88;;;;;;;5.75;100.00;101598.38;4713743;30;20404;-63
2023/01/30 08:32:45;;;;;;;19.60;5.18;;;;;;;5.73;100.00;101592.34;4672402;30;20060;-62
2023/01/30 08:35:13;;;;;;;21.15;4.90;;;;;;;5.72;100.00;101601.50;4691183;30;20419;-63
2023/01/30 08:37:41;;;;;;;26.77;5.90;;;;;;;5.70;100.00;101603.59;4715209;30;20054;-64
2023/01/30 08:40:09;;;;;;;19.92;4.97;;;;;;;5.70;100.00;101609.84;4716249;30;20503;-64
2023/01/30 08:42:37;;;;;;;21.90;5.25;;;;;;;5.70;100.00;101611.69;4713992;30;20133;-64
2023/01/30 08:45:05;;;;;;;24.90;5.63;;;;;;;5.70;100.00;101615.25;4716264;30;20057;-61
2023/01/30 08:47:34;;;;;;;25.73;5.40;;;;;;;5.74;100.00;101621.03;4713201;30;20107;-63
2023/01/30 08:50:03;;;;;;;23.95;5.75;;;;;;;5.71;100.00;101616.06;4702461;30;20647;-65
2023/01/30 08:52:32;;;;;;;28.58;6.88;;;;;;;5.74;100.00;101613.75;4718354;30;20049;-63
2023/01/30 08:55:00;;;;;;;23.23;5.85;;;;;;;5.75;100.00;101628.13;4703976;30;20107;-62
2023/01/30 08:57:28;;;;;;;25.17;6.80;;;;;;;5.74;100.00;101626.44;4722568;30;20056;-63
2023/01/30 08:59:56;;;;;;;23.33;5.75;;;;;;;5.73;100.00;101622.91;4707546;30;20117;-62
2023/01/30 09:02:23;;;;;;;24.65;5.55;;;;;;;5.74;100.00;101639.97;4720920;30;20049;-62
2023/01/30 09:04:51;;;;;;;23.73;5.40;;;;;;;5.75;100.00;101645.16;4705348;30;20041;-62
2023/01/30 09:07:19;;;;;;;19.42;4.72;;;;;;;5.78;100.00;101645.78;4718297;30;20152;-63
2023/01/30 09:09:47;;;;;;;20.70;6.13;;;;;;;5.79;100.00;101645.56;4718318;30;20075;-63
2023/01/30 09:12:15;;;;;;;29.95;6.65;;;;;;;5.81;100.00;101654.28;4704039;30;20065;-62
2023/01/30 09:14:42;;;;;;;19.75;5.63;;;;;;;5.82;100.00;101658.66;4721015;30;20057;-62
2023/01/30 09:17:10;;;;;;;22.65;5.28;;;;;;;5.85;100.00;101654.69;4722304;30;20055;-63
2023/01/30 09:19:38;;;;;;;19.70;4.90;;;;;;;5.88;100.00;101655.09;4707887;30;20162;-62
2023/01/30 09:22:07;;;;;;;19.92;4.80;;;;;;;5.89;100.00;101651.34;4720311;30;20067;-63
2023/01/30 09:24:35;;;;;;;21.67;5.80;;;;;;;5.90;100.00;101650.28;4721121;30;20084;-63
2023/01/30 09:27:02;;;;;;;21.55;5.75;;;;;;;5.94;100.00;101665.09;4721833;30;20056;-61
2023/01/30 09:29:30;;;;;;;22.88;5.15;;;;;;;5.98;100.00;101660.06;4718452;30;20152;-62
2023/01/30 09:31:58;;;;;;;22.50;5.55;;;;;;;6.02;100.00;101668.56;4718353;30;20072;-64
2023/01/30 09:34:27;;;;;;;26.95;6.10;;;;;;;6.06;100.00;101664.38;4729391;30;20076;-63
2023/01/30 09:36:58;;;;;;;22.70;5.88;;;;;;;6.12;98.28;101682.47;4729779;30;20470;-61
2023/01/30 09:39:28;;;;;;;21.90;5.75;;;;;;;6.16;98.60;101697.22;4723681;30;20140;-63
2023/01/30 09:42:28;;;;;;;22.85;5.68;;;;;;;6.20;98.63;101679.47;4721076;30;20144;-62
2023/01/30 09:45:29;;;;;;;18.65;5.13;;;;;;;6.24;99.03;101669.06;4722519;30;20061;-64
2023/01/30 09:48:23;;;;;;;22.20;5.38;;;;;;;6.25;97.02;101671.53;4707036;30;20057;-60
2023/01/30 09:50:58;;;;;;;19.60;5.53;;;;;;;6.27;97.35;101699.22;4688334;30;20054;-62
2023/01/30 09:53:35;;;;;;;23.48;5.43;;;;;;;6.28;96.93;101691.94;4700812;30;20088;-63
2023/01/30 09:56:03;;;;;;;;;;;;;;;6.29;96.48;101693.59;4704755;30;20057;-62
2023/01/30 09:58:48;;;;;;;20.95;5.60;;;;;;;6.29;96.39;101691.72;4703489;30;19981;-62
2023/01/30 10:01:29;;;;;;;29.23;6.78;;;;;;;6.31;97.21;101697.75;4703515;30;20057;-63
2023/01/30 10:04:06;;;;;;;23.27;4.90;;;;;;;6.31;96.83;101684.22;4703147;30;20057;-62
2023/01/30 10:06:35;;;;;;;;;;;;;;;6.34;95.27;101697.28;4718723;30;20060;-62
2023/01/30 10:09:14;;;;;;;21.55;6.03;;;;;;;6.37;94.80;101723.09;4674379;30;19977;-63
2023/01/30 10:11:49;;;;;;;21.48;4.82;;;;;;;6.37;94.88;101706.84;4717633;30;20499;-62
2023/01/30 10:14:26;;;;;;;22.13;5.07;;;;;;;6.36;96.06;101716.84;4702270;30;20174;-61
2023/01/30 10:17:01;;;;;;;;;;;;;;;6.37;95.79;101706.84;4718035;30;20097;-64
2023/01/30 10:19:32;;;;;;;25.00;5.38;;;;;;;6.38;95.87;101709.34;4702672;30;19950;-62
2023/01/30 10:22:39;;;;;;;25.35;6.18;;;;;;;6.42;94.81;101703.50;4701706;30;20088;-63
2023/01/30 10:25:19;;;;;;;22.65;5.30;;;;;;;6.43;93.76;101713.28;4702696;30;20084;-62
2023/01/30 10:28:00;;;;;;;19.75;5.38;;;;;;;6.44;93.90;101710.34;4718028;30;20057;-62
2023/01/30 10:30:27;;;;;;;24.25;5.47;;;;;;;6.45;93.95;101709.31;4716312;30;20049;-63
2023/01/30 10:33:05;;;;;;;18.27;5.03;;;;;;;6.47;93.16;101738.84;4702191;30;20060;-64
2023/01/30 10:35:37;;;;;;;23.77;5.65;;;;;;;6.49;93.42;101715.09;4716059;30;20118;-63
2023/01/30 10:38:13;;;;;;;23.05;5.20;;;;;;;6.49;93.33;101725.94;4718571;30;20523;-63
2023/01/30 10:41:13;;;;;;;22.48;5.38;;;;;;;6.49;93.93;101720.53;4717865;30;20123;-62
2023/01/30 10:43:44;;;;;;;20.73;4.55;;;;;;;6.48;94.10;101719.69;4720381;30;20052;-62
2023/01/30 10:46:46;;;;;;;24.90;5.30;;;;;;;6.52;93.82;101717.41;4704443;30;20077;-63
2023/01/30 10:49:18;;;;;;;21.67;5.63;;;;;;;6.52;93.81;101730.94;4721136;30;20483;-61
2023/01/30 10:52:09;;;;;;;20.55;5.55;;;;;;;6.49;93.79;101726.75;4720151;30;20067;-62
2023/01/30 10:54:46;;;;;;;19.58;5.53;;;;;;;6.51;94.06;101740.91;4723255;30;20077;-63
2023/01/30 10:57:17;;;;;;;24.50;5.05;;;;;;;6.51;94.15;101734.69;4705702;30;20057;-62
2023/01/30 11:00:09;;;;;;;20.40;5.90;;;;;;;6.51;94.13;101738.22;4728296;30;20104;-62
2023/01/30 11:03:09;;;;;;;21.90;5.50;;;;;;;6.52;94.30;101730.94;4709496;30;20045;-62
2023/01/30 11:05:58;;;;;;;29.33;5.40;;;;;;;6.53;94.21;101743.41;4704686;30;20088;-63
2023/01/30 11:08:30;;;;;;;22.65;5.25;;;;;;;6.55;93.70;101730.50;4704402;30;20455;-62
2023/01/30 11:10:58;;;;;;;24.58;5.70;;;;;;;6.56;93.26;101732.13;4704930;30;20057;-61
2023/01/30 11:13:31;;;;;;;24.88;5.82;;;;;;;6.58;93.37;101730.88;4718855;30;20111;-62
2023/01/30 11:16:04;;;;;;;26.98;5.65;;;;;;;6.60;92.72;101728.78;4718726;30;20052;-60
2023/01/30 11:18:32;;;;;;;29.02;6.28;;;;;;;6.62;93.37;101750.22;4690135;30;20140;-62
2023/01/30 11:21:24;;;;;;;26.23;5.90;;;;;;;6.64;92.63;101760.81;4691915;30;20048;-60
2023/01/30 11:24:15;;;;;;;20.33;5.03;;;;;;;6.68;93.47;101732.25;4705655;30;20093;-63
2023/01/30 11:26:44;;;;;;;28.73;6.03;;;;;;;6.68;92.25;101724.97;4720512;30;20045;-63
2023/01/30 11:29:14;;;;;;;22.33;6.00;;;;;;;6.69;92.61;101731.25;4719536;30;20053;-61
2023/01/30 11:31:47;;;;;;;19.95;4.93;;;;;;;6.72;93.04;101725.38;4704638;30;20064;-62
2023/01/30 11:34:17;;;;;;;27.70;6.70;;;;;;;6.72;93.08;101739.72;4718806;30;20065;-61
2023/01/30 11:36:48;;;;;;;20.65;5.25;;;;;;;6.73;92.79;101738.66;4719803;30;20080;-60
2023/01/30 11:39:17;;;;;;;23.83;6.10;;;;;;;6.73;92.52;101754.91;4718809;30;20049;-62
2023/01/30 11:41:57;;;;;;;22.15;5.60;;;;;;;6.74;92.27;101748.47;4719596;30;20138;-61
2023/01/30 11:44:36;;;;;;;29.25;7.65;;;;;;;6.74;93.54;101759.31;4720077;30;20218;-62
2023/01/30 11:47:11;;;;;;;31.92;7.20;;;;;;;6.74;93.38;101751.19;4720336;30;20134;-64